createdAt,value
2019-05-18T00:01:28.173Z,43
2019-05-18T00:11:28.584Z,42
2019-05-18T00:21:28.477Z,43
2019-05-18T00:31:28.047Z,46
2019-05-18T00:41:27.668Z,46
2019-05-18T00:51:28.294Z,45
2019-05-18T01:01:28.439Z,44
2019-05-18T01:11:29.010Z,42
2019-05-18T01:21:27.027Z,46
2019-05-18T01:31:26.622Z,45
2019-05-18T01:41:27.287Z,47
2019-05-18T01:51:27.313Z,45
2019-05-18T02:01:28.218Z,46
2019-05-18T02:11:27.757Z,43
2019-05-18T02:21:27.904Z,46
2019-05-18T02:31:28.834Z,45
2019-05-18T02:41:27.334Z,45
2019-05-18T02:51:30.195Z,43
2019-05-18T03:01:28.708Z,43
2019-05-18T03:11:28.391Z,44
2019-05-18T03:21:28.540Z,46
2019-05-18T03:31:28.421Z,46
2019-05-18T03:41:29.083Z,43
2019-05-18T03:51:28.178Z,43
2019-05-18T04:01:27.837Z,47
2019-05-18T04:11:29.216Z,44
2019-05-18T04:21:28.578Z,44
2019-05-18T04:31:34.095Z,43
2019-05-18T04:41:27.853Z,43
2019-05-18T04:51:28.077Z,46
2019-05-18T05:01:28.198Z,47
2019-05-18T05:11:27.222Z,45
2019-05-18T05:21:29.197Z,44
2019-05-18T05:31:28.381Z,43
2019-05-18T05:41:32.409Z,44
2019-05-18T05:51:30.436Z,43
2019-05-18T06:01:28.006Z,43
2019-05-18T06:11:33.341Z,47
2019-05-18T06:21:30.018Z,43
2019-05-18T06:31:28.120Z,45
2019-05-18T06:41:26.670Z,45
2019-05-18T06:51:28.634Z,44
2019-05-18T07:01:29.552Z,43
2019-05-18T07:11:29.095Z,44
2019-05-18T07:21:28.224Z,46
2019-05-18T07:31:28.750Z,44
2019-05-18T07:42:02.034Z,44
2019-05-18T07:51:39.387Z,42
2019-05-18T08:01:27.719Z,43
2019-05-18T08:11:30.793Z,42
2019-05-18T08:21:26.728Z,42
2019-05-18T08:31:33.305Z,44
2019-05-18T08:41:28.085Z,43
2019-05-18T08:51:27.388Z,43
2019-05-18T09:01:28.365Z,41
2019-05-18T09:11:28.884Z,42
2019-05-18T09:21:27.525Z,41
2019-05-18T09:31:27.862Z,41
2019-05-18T09:41:28.837Z,40
2019-05-18T09:51:28.106Z,42
2019-05-18T10:01:28.226Z,39
2019-05-18T10:11:27.928Z,41
2019-05-18T10:21:27.037Z,40
2019-05-18T10:31:27.290Z,40
2019-05-18T10:41:27.835Z,39
2019-05-18T10:51:28.765Z,40
2019-05-18T11:01:28.981Z,39
2019-05-18T11:11:26.648Z,38
2019-05-18T11:21:28.233Z,39
2019-05-18T11:31:27.952Z,39
2019-05-18T11:41:27.040Z,41
2019-05-18T11:51:27.430Z,39
2019-05-18T12:01:28.113Z,38
2019-05-18T12:11:27.150Z,38
2019-05-18T12:21:27.606Z,38
2019-05-18T12:31:28.016Z,38
2019-05-18T12:41:28.428Z,39
2019-05-18T12:51:27.304Z,38
2019-05-18T13:01:27.246Z,39
2019-05-18T13:11:29.052Z,37
2019-05-18T13:21:27.346Z,39
2019-05-18T13:31:33.189Z,39
2019-05-18T13:41:27.908Z,37
2019-05-18T13:51:27.315Z,37
2019-05-18T14:01:33.009Z,37
2019-05-18T14:11:27.379Z,38
2019-05-18T14:21:28.842Z,36
2019-05-18T14:31:28.422Z,36
2019-05-18T14:41:29.203Z,35
2019-05-18T14:51:29.305Z,35
2019-05-18T15:01:27.820Z,36
2019-05-18T15:11:29.239Z,35
2019-05-18T15:21:27.280Z,35
2019-05-18T15:31:27.449Z,37
2019-05-18T15:41:27.848Z,37
2019-05-18T15:51:28.061Z,37
2019-05-18T16:01:26.868Z,36
2019-05-18T16:11:28.285Z,36
2019-05-18T16:21:31.464Z,36
2019-05-18T16:31:27.349Z,36
2019-05-18T16:41:27.757Z,35
2019-05-18T16:51:27.820Z,36
2019-05-18T17:01:28.188Z,35
2019-05-18T17:11:27.877Z,35
2019-05-18T17:21:27.247Z,36
2019-05-18T17:31:27.620Z,36
2019-05-18T17:41:28.318Z,36
2019-05-18T17:51:27.007Z,36
2019-05-18T18:01:27.399Z,37
2019-05-18T18:11:27.178Z,36
2019-05-18T18:21:27.352Z,38
2019-05-18T18:31:30.730Z,36
2019-05-18T18:41:28.032Z,37
2019-05-18T18:51:27.650Z,37
2019-05-18T19:01:27.594Z,39
2019-05-18T19:11:27.771Z,37
2019-05-18T19:21:26.872Z,37
2019-05-18T19:31:26.641Z,38
2019-05-18T19:41:27.439Z,39
2019-05-18T19:51:28.095Z,39
2019-05-18T20:01:26.810Z,38
2019-05-18T20:11:28.246Z,39
2019-05-18T20:21:27.311Z,38
2019-05-18T20:31:27.168Z,40
2019-05-18T20:41:28.066Z,38
2019-05-18T20:51:26.692Z,38
2019-05-18T21:01:27.782Z,40
2019-05-18T21:11:30.310Z,38
2019-05-18T21:21:28.684Z,38
2019-05-18T21:31:28.097Z,38
2019-05-18T21:41:27.826Z,38
2019-05-18T21:51:29.075Z,38
2019-05-18T22:01:28.479Z,38
2019-05-18T22:11:29.858Z,39
2019-05-18T22:21:30.425Z,38
2019-05-18T22:31:28.458Z,40
2019-05-18T22:41:28.437Z,41
2019-05-18T22:51:28.336Z,40
2019-05-18T23:01:29.122Z,39
2019-05-18T23:11:28.476Z,40
2019-05-18T23:21:29.014Z,40
2019-05-18T23:31:26.639Z,39
2019-05-18T23:41:28.436Z,41
2019-05-18T23:51:27.743Z,40
